createdAt,value
2018-08-16T00:02:44.839Z,20.06
2018-08-16T00:07:40.342Z,20.00
2018-08-16T00:12:37.492Z,19.91
2018-08-16T00:17:33.402Z,19.85
2018-08-16T00:22:29.191Z,19.76
2018-08-16T00:27:24.856Z,19.88
2018-08-16T00:32:22.176Z,19.85
2018-08-16T00:37:17.753Z,19.86
2018-08-16T00:42:13.961Z,19.67
2018-08-16T00:47:09.886Z,19.76
2018-08-16T00:52:05.692Z,19.71
2018-08-16T00:57:02.564Z,19.69
2018-08-16T01:01:58.302Z,19.69
2018-08-16T01:06:54.266Z,19.56
2018-08-16T01:11:50.600Z,19.39
2018-08-16T01:16:47.354Z,19.47
2018-08-16T01:21:42.983Z,19.44
2018-08-16T01:26:38.972Z,19.41
2018-08-16T01:31:35.267Z,19.39
2018-08-16T01:36:31.436Z,19.37
2018-08-16T01:41:27.313Z,19.37
2018-08-16T01:46:23.305Z,19.31
2018-08-16T01:51:18.789Z,19.30
2018-08-16T01:56:14.765Z,19.37
2018-08-16T02:01:10.445Z,19.26
2018-08-16T02:06:05.871Z,19.27
2018-08-16T02:11:02.576Z,19.16
2018-08-16T02:15:58.058Z,19.11
2018-08-16T02:20:53.784Z,19.14
2018-08-16T02:25:49.440Z,19.07
2018-08-16T02:30:45.747Z,19.11
2018-08-16T02:35:41.984Z,18.88
2018-08-16T02:40:39.237Z,18.90
2018-08-16T02:45:34.970Z,18.81
2018-08-16T02:50:30.767Z,18.81
2018-08-16T02:55:26.580Z,18.71
2018-08-16T03:00:22.345Z,18.73
2018-08-16T03:05:17.954Z,18.56
2018-08-16T03:10:14.736Z,18.55
2018-08-16T03:15:11.399Z,18.43
2018-08-16T03:20:07.322Z,18.44
2018-08-16T03:25:03.118Z,18.43
2018-08-16T03:29:58.881Z,18.43
2018-08-16T03:34:54.445Z,18.43
2018-08-16T03:39:50.802Z,18.41
2018-08-16T03:44:46.392Z,18.41
2018-08-16T03:49:43.187Z,18.26
2018-08-16T03:54:39.415Z,18.26
2018-08-16T03:59:35.513Z,18.28
2018-08-16T04:04:31.758Z,18.29
2018-08-16T04:09:27.673Z,18.31
2018-08-16T04:14:23.598Z,18.22
2018-08-16T04:19:19.709Z,18.26
2018-08-16T04:24:15.420Z,18.15
2018-08-16T04:29:11.260Z,18.11
2018-08-16T04:34:07.637Z,18.05
2018-08-16T04:39:04.107Z,18.16
2018-08-16T04:43:59.724Z,18.26
2018-08-16T04:48:55.494Z,18.19
2018-08-16T04:53:51.302Z,18.18
2018-08-16T04:58:47.237Z,18.23
2018-08-16T05:03:44.118Z,18.19
2018-08-16T05:08:39.907Z,18.13
2018-08-16T05:13:35.910Z,18.33
2018-08-16T05:18:31.847Z,18.35
2018-08-16T05:23:27.999Z,18.44
2018-08-16T05:28:24.039Z,18.70
2018-08-16T05:33:20.016Z,18.74
2018-08-16T05:38:16.578Z,18.98
2018-08-16T05:43:12.233Z,18.98
2018-08-16T05:48:08.572Z,19.14
2018-08-16T05:53:04.563Z,19.22
2018-08-16T05:58:00.362Z,19.27
2018-08-16T06:02:56.467Z,19.45
2018-08-16T06:07:52.879Z,19.44
2018-08-16T06:12:49.267Z,19.59
2018-08-16T06:17:45.299Z,19.66
2018-08-16T06:22:42.383Z,19.85
2018-08-16T06:27:39.135Z,20.11
2018-08-16T06:32:35.029Z,20.37
2018-08-16T06:37:31.529Z,20.51
2018-08-16T06:42:29.033Z,20.80
2018-08-16T06:47:25.060Z,20.99
2018-08-16T06:52:21.096Z,20.87
2018-08-16T06:57:18.263Z,21.11
2018-08-16T07:02:14.491Z,21.27
2018-08-16T07:07:10.483Z,21.24
2018-08-16T07:12:06.480Z,21.32
2018-08-16T07:17:02.500Z,21.39
2018-08-16T07:21:59.403Z,21.48
2018-08-16T07:26:54.918Z,21.51
2018-08-16T07:31:51.904Z,21.58
2018-08-16T07:36:47.538Z,21.82
2018-08-16T07:41:43.885Z,22.17
2018-08-16T07:46:41.625Z,22.76
2018-08-16T07:51:39.819Z,22.98
2018-08-16T07:56:36.369Z,23.24
2018-08-16T08:01:32.522Z,23.76
2018-08-16T08:06:29.539Z,23.93
2018-08-16T08:11:27.077Z,24.66
2018-08-16T08:16:24.012Z,24.89
2018-08-16T08:21:20.624Z,24.96
2018-08-16T08:26:16.723Z,25.21
2018-08-16T08:31:13.447Z,25.63
2018-08-16T08:36:11.381Z,26.00
2018-08-16T08:41:07.271Z,25.90
2018-08-16T08:46:03.055Z,25.18
2018-08-16T08:50:58.323Z,25.10
2018-08-16T08:55:53.234Z,24.85
2018-08-16T09:00:49.781Z,24.86
2018-08-16T09:05:44.953Z,24.66
2018-08-16T09:10:41.422Z,24.53
2018-08-16T09:15:36.716Z,24.40
2018-08-16T09:20:33.539Z,24.05
2018-08-16T09:25:28.822Z,24.08
2018-08-16T09:30:24.772Z,24.18
2018-08-16T09:35:21.944Z,24.57
2018-08-16T09:40:18.149Z,25.08
2018-08-16T09:45:16.046Z,25.35
2018-08-16T09:50:13.391Z,25.69
2018-08-16T09:55:11.010Z,25.75
2018-08-16T10:00:07.169Z,25.66
2018-08-16T10:05:04.470Z,25.41
2018-08-16T10:10:00.612Z,26.36
2018-08-16T10:14:58.201Z,26.68
2018-08-16T10:19:54.496Z,26.56
2018-08-16T10:24:51.782Z,26.89
2018-08-16T10:29:47.958Z,26.89
2018-08-16T10:34:44.673Z,27.20
2018-08-16T10:39:42.342Z,27.37
2018-08-16T10:44:39.462Z,26.90
2018-08-16T10:49:35.157Z,27.12
2018-08-16T10:54:31.666Z,27.32
2018-08-16T10:59:27.994Z,27.26
2018-08-16T11:04:25.644Z,27.51
2018-08-16T11:09:22.294Z,27.68
2018-08-16T11:14:18.461Z,27.63
2018-08-16T11:19:14.955Z,28.01
2018-08-16T11:24:11.337Z,27.77
2018-08-16T11:29:07.638Z,27.92
2018-08-16T11:34:03.894Z,28.15
2018-08-16T11:39:00.213Z,28.22
2018-08-16T11:43:56.642Z,27.83
2018-08-16T11:48:52.766Z,28.15
2018-08-16T11:53:49.975Z,28.15
2018-08-16T11:58:46.355Z,28.45
2018-08-16T12:03:42.848Z,28.29
2018-08-16T12:08:39.183Z,28.75
2018-08-16T12:13:35.566Z,28.82
2018-08-16T12:18:31.656Z,28.39
2018-08-16T12:23:25.869Z,28.29
2018-08-16T12:28:21.614Z,27.93
2018-08-16T12:33:17.233Z,27.65
2018-08-16T12:38:12.796Z,27.21
2018-08-16T12:43:07.183Z,27.37
2018-08-16T12:48:03.671Z,27.33
2018-08-16T12:52:59.464Z,27.20
2018-08-16T12:57:55.127Z,27.29
2018-08-16T13:02:52.371Z,27.51
2018-08-16T13:07:48.210Z,27.92
2018-08-16T13:12:44.787Z,28.33
2018-08-16T13:17:41.383Z,28.76
2018-08-16T13:22:37.580Z,28.79
2018-08-16T13:27:33.596Z,28.79
2018-08-16T13:32:29.629Z,28.63
2018-08-16T13:37:25.827Z,28.86
2018-08-16T13:42:22.932Z,28.86
2018-08-16T13:47:18.515Z,28.69
2018-08-16T13:52:15.068Z,28.35
2018-08-16T13:57:10.264Z,28.05
2018-08-16T14:02:05.941Z,27.85
2018-08-16T14:07:01.613Z,27.83
2018-08-16T14:11:57.595Z,27.77
2018-08-16T14:16:53.372Z,27.80
2018-08-16T14:21:49.116Z,27.65
2018-08-16T14:26:44.933Z,27.75
2018-08-16T14:31:41.152Z,27.68
2018-08-16T14:36:38.623Z,27.74
2018-08-16T14:41:34.379Z,27.85
2018-08-16T14:46:30.289Z,27.70
2018-08-16T14:51:26.171Z,27.48
2018-08-16T14:56:22.010Z,27.45
2018-08-16T15:01:18.879Z,27.33
2018-08-16T15:06:14.513Z,27.32
2018-08-16T15:11:11.522Z,27.36
2018-08-16T15:16:07.629Z,27.42
2018-08-16T15:21:03.726Z,27.18
2018-08-16T15:25:59.655Z,27.26
2018-08-16T15:30:55.997Z,27.36
2018-08-16T15:35:51.915Z,27.35
2018-08-16T15:40:48.920Z,27.40
2018-08-16T15:45:44.956Z,27.33
2018-08-16T15:50:40.975Z,27.37
2018-08-16T15:55:36.759Z,27.35
2018-08-16T16:00:33.726Z,27.27
2018-08-16T16:05:29.344Z,27.30
2018-08-16T16:10:25.236Z,27.29
2018-08-16T16:15:21.304Z,27.17
2018-08-16T16:20:17.244Z,27.18
2018-08-16T16:25:13.039Z,27.15
2018-08-16T16:30:09.063Z,27.25
2018-08-16T16:35:04.959Z,27.17
2018-08-16T16:40:00.703Z,27.14
2018-08-16T16:44:56.553Z,27.14
2018-08-16T16:49:52.757Z,26.97
2018-08-16T16:54:48.976Z,27.02
2018-08-16T16:59:45.172Z,26.89
2018-08-16T17:04:42.295Z,26.85
2018-08-16T17:09:37.961Z,26.73
2018-08-16T17:14:34.798Z,26.66
2018-08-16T17:19:31.642Z,26.48
2018-08-16T17:24:27.192Z,26.33
2018-08-16T17:29:22.988Z,26.00
2018-08-16T17:34:18.731Z,25.99
2018-08-16T17:39:14.693Z,25.90
2018-08-16T17:44:11.398Z,25.77
2018-08-16T17:49:06.966Z,25.66
2018-08-16T17:54:02.833Z,25.54
2018-08-16T17:58:58.574Z,25.35
2018-08-16T18:03:54.384Z,25.29
2018-08-16T18:08:50.223Z,25.07
2018-08-16T18:13:46.001Z,25.01
2018-08-16T18:18:43.260Z,24.96
2018-08-16T18:23:39.892Z,24.74
2018-08-16T18:28:35.536Z,24.73
2018-08-16T18:33:31.222Z,24.53
2018-08-16T18:38:27.011Z,24.55
2018-08-16T18:43:23.841Z,24.26
2018-08-16T18:48:19.325Z,24.11
2018-08-16T18:53:15.191Z,24.11
2018-08-16T18:58:12.184Z,24.06
2018-08-16T19:03:08.204Z,23.92
2018-08-16T19:08:05.023Z,23.80
2018-08-16T19:13:00.722Z,23.63
2018-08-16T19:17:57.845Z,23.59
2018-08-16T19:22:53.266Z,23.41
2018-08-16T19:27:48.857Z,23.27
2018-08-16T19:32:44.968Z,23.17
2018-08-16T19:37:40.840Z,23.10
2018-08-16T19:42:36.706Z,22.88
2018-08-16T19:47:32.522Z,22.87
2018-08-16T19:52:28.271Z,22.69
2018-08-16T19:57:24.430Z,22.59
2018-08-16T20:02:20.118Z,22.54
2018-08-16T20:07:15.993Z,22.41
2018-08-16T20:12:12.793Z,22.53
2018-08-16T20:17:08.315Z,22.41
2018-08-16T20:22:04.429Z,22.25
2018-08-16T20:27:00.327Z,22.13
2018-08-16T20:31:57.296Z,22.25
2018-08-16T20:36:53.815Z,22.02
2018-08-16T20:41:49.528Z,21.92
2018-08-16T20:46:46.703Z,21.89
2018-08-16T20:51:43.382Z,21.91
2018-08-16T20:56:38.972Z,21.80
2018-08-16T21:01:34.700Z,21.73
2018-08-16T21:06:30.723Z,21.64
2018-08-16T21:11:27.990Z,21.60
2018-08-16T21:16:23.617Z,21.43
2018-08-16T21:21:19.695Z,21.24
2018-08-16T21:26:16.537Z,21.24
2018-08-16T21:31:12.075Z,21.06
2018-08-16T21:36:07.973Z,21.00
2018-08-16T21:41:04.627Z,20.96
2018-08-16T21:46:00.107Z,20.88
2018-08-16T21:50:56.097Z,20.84
2018-08-16T21:55:51.776Z,20.87
2018-08-16T22:00:47.508Z,20.80
2018-08-16T22:05:43.486Z,20.99
2018-08-16T22:10:41.348Z,20.80
2018-08-16T22:15:37.505Z,20.96
2018-08-16T22:20:34.255Z,20.92
2018-08-16T22:25:29.801Z,20.92
2018-08-16T22:30:25.961Z,20.51
2018-08-16T22:35:21.887Z,20.44
2018-08-16T22:40:17.689Z,20.55
2018-08-16T22:45:13.357Z,20.50
2018-08-16T22:50:09.063Z,20.31
2018-08-16T22:55:04.808Z,20.25
2018-08-16T23:00:00.690Z,20.28
2018-08-16T23:04:56.259Z,20.39
2018-08-16T23:09:51.919Z,20.25
2018-08-16T23:14:47.973Z,20.16
2018-08-16T23:19:43.855Z,20.13
2018-08-16T23:24:39.770Z,20.26
2018-08-16T23:29:35.748Z,20.32
2018-08-16T23:34:32.323Z,20.26
2018-08-16T23:39:28.136Z,20.09
2018-08-16T23:44:23.889Z,20.07
2018-08-16T23:49:20.602Z,20.18
2018-08-16T23:54:17.254Z,20.22
2018-08-16T23:59:13.916Z,20.00
